sensor_id;sensor_type;location;lat;lon;timestamp;P1;durP1;ratioP1;P2;durP2;ratioP2
57848;SDS011;68645;44.762;21.516;2023-06-26T00:00:00;26.45;;;16.00;;
57848;SDS011;68645;44.762;21.516;2023-06-26T00:02:27;24.17;;;16.33;;
57848;SDS011;68645;44.762;21.516;2023-06-26T00:04:53;30.38;;;17.63;;
57848;SDS011;68645;44.762;21.516;2023-06-26T00:07:19;33.00;;;19.60;;
57848;SDS011;68645;44.762;21.516;2023-06-26T00:09:45;36.83;;;21.35;;
57848;SDS011;68645;44.762;21.516;2023-06-26T00:12:12;42.13;;;23.55;;
57848;SDS011;68645;44.762;21.516;2023-06-26T00:14:38;46.05;;;24.65;;
57848;SDS011;68645;44.762;21.516;2023-06-26T00:17:04;54.05;;;28.67;;
57848;SDS011;68645;44.762;21.516;2023-06-26T00:19:30;58.17;;;29.38;;
57848;SDS011;68645;44.762;21.516;2023-06-26T00:21:56;52.28;;;28.77;;
57848;SDS011;68645;44.762;21.516;2023-06-26T00:24:22;45.45;;;25.77;;
57848;SDS011;68645;44.762;21.516;2023-06-26T00:26:48;44.63;;;26.02;;
57848;SDS011;68645;44.762;21.516;2023-06-26T00:29:15;43.67;;;24.65;;
57848;SDS011;68645;44.762;21.516;2023-06-26T00:31:41;42.05;;;23.50;;
57848;SDS011;68645;44.762;21.516;2023-06-26T00:34:07;41.28;;;21.33;;
57848;SDS011;68645;44.762;21.516;2023-06-26T00:36:33;33.60;;;20.95;;
57848;SDS011;68645;44.762;21.516;2023-06-26T00:38:59;33.85;;;20.73;;
57848;SDS011;68645;44.762;21.516;2023-06-26T00:41:26;32.85;;;20.83;;
57848;SDS011;68645;44.762;21.516;2023-06-26T00:43:52;31.60;;;18.83;;
57848;SDS011;68645;44.762;21.516;2023-06-26T00:46:18;27.92;;;18.20;;
57848;SDS011;68645;44.762;21.516;2023-06-26T00:48:44;27.77;;;18.65;;
57848;SDS011;68645;44.762;21.516;2023-06-26T00:51:11;31.15;;;17.45;;
57848;SDS011;68645;44.762;21.516;2023-06-26T00:53:37;34.28;;;17.90;;
57848;SDS011;68645;44.762;21.516;2023-06-26T00:56:04;25.75;;;15.82;;
57848;SDS011;68645;44.762;21.516;2023-06-26T00:58:31;25.58;;;16.02;;
57848;SDS011;68645;44.762;21.516;2023-06-26T01:00:57;28.02;;;14.88;;
57848;SDS011;68645;44.762;21.516;2023-06-26T01:03:23;27.45;;;16.30;;
57848;SDS011;68645;44.762;21.516;2023-06-26T01:05:51;20.75;;;13.68;;
57848;SDS011;68645;44.762;21.516;2023-06-26T01:08:17;21.40;;;14.20;;
57848;SDS011;68645;44.762;21.516;2023-06-26T01:10:44;26.25;;;14.05;;
57848;SDS011;68645;44.762;21.516;2023-06-26T01:13:11;18.38;;;13.43;;
57848;SDS011;68645;44.762;21.516;2023-06-26T01:15:38;18.83;;;13.00;;
57848;SDS011;68645;44.762;21.516;2023-06-26T01:18:05;20.67;;;12.85;;
57848;SDS011;68645;44.762;21.516;2023-06-26T01:20:32;20.13;;;12.50;;
57848;SDS011;68645;44.762;21.516;2023-06-26T01:28:04;24.95;;;12.93;;
57848;SDS011;68645;44.762;21.516;2023-06-26T01:30:31;26.20;;;13.55;;
57848;SDS011;68645;44.762;21.516;2023-06-26T01:32:58;22.08;;;13.35;;
57848;SDS011;68645;44.762;21.516;2023-06-26T01:35:25;21.13;;;13.35;;
57848;SDS011;68645;44.762;21.516;2023-06-26T01:37:51;21.30;;;13.77;;
57848;SDS011;68645;44.762;21.516;2023-06-26T01:40:17;19.17;;;13.20;;
57848;SDS011;68645;44.762;21.516;2023-06-26T01:42:43;20.48;;;13.30;;
57848;SDS011;68645;44.762;21.516;2023-06-26T01:45:11;19.38;;;13.18;;
57848;SDS011;68645;44.762;21.516;2023-06-26T01:47:38;23.00;;;14.50;;
57848;SDS011;68645;44.762;21.516;2023-06-26T01:50:09;19.80;;;13.30;;
57848;SDS011;68645;44.762;21.516;2023-06-26T01:52:40;27.50;;;15.75;;
57848;SDS011;68645;44.762;21.516;2023-06-26T01:57:33;22.55;;;14.93;;
57848;SDS011;68645;44.762;21.516;2023-06-26T02:00:02;24.38;;;16.83;;
57848;SDS011;68645;44.762;21.516;2023-06-26T02:02:29;24.17;;;15.98;;
57848;SDS011;68645;44.762;21.516;2023-06-26T02:04:55;21.80;;;15.15;;
57848;SDS011;68645;44.762;21.516;2023-06-26T02:07:21;34.38;;;16.40;;
57848;SDS011;68645;44.762;21.516;2023-06-26T02:09:47;26.50;;;16.42;;
57848;SDS011;68645;44.762;21.516;2023-06-26T02:12:13;24.15;;;16.67;;
57848;SDS011;68645;44.762;21.516;2023-06-26T02:14:40;27.58;;;17.67;;
57848;SDS011;68645;44.762;21.516;2023-06-26T02:17:06;28.05;;;17.20;;
57848;SDS011;68645;44.762;21.516;2023-06-26T02:19:34;31.27;;;18.05;;
57848;SDS011;68645;44.762;21.516;2023-06-26T02:22:00;32.53;;;18.70;;
57848;SDS011;68645;44.762;21.516;2023-06-26T02:24:26;34.92;;;19.40;;
57848;SDS011;68645;44.762;21.516;2023-06-26T02:26:55;33.13;;;19.27;;
57848;SDS011;68645;44.762;21.516;2023-06-26T02:29:22;32.88;;;19.55;;
57848;SDS011;68645;44.762;21.516;2023-06-26T02:31:48;28.42;;;18.58;;
57848;SDS011;68645;44.762;21.516;2023-06-26T02:34:15;32.22;;;18.90;;
57848;SDS011;68645;44.762;21.516;2023-06-26T02:36:41;30.13;;;17.70;;
57848;SDS011;68645;44.762;21.516;2023-06-26T02:39:07;29.83;;;18.63;;
57848;SDS011;68645;44.762;21.516;2023-06-26T02:41:33;26.75;;;18.48;;
57848;SDS011;68645;44.762;21.516;2023-06-26T02:43:59;32.92;;;19.90;;
57848;SDS011;68645;44.762;21.516;2023-06-26T02:46:26;31.90;;;20.17;;
57848;SDS011;68645;44.762;21.516;2023-06-26T02:48:52;31.90;;;21.05;;
57848;SDS011;68645;44.762;21.516;2023-06-26T02:51:18;29.70;;;19.85;;
57848;SDS011;68645;44.762;21.516;2023-06-26T02:53:44;29.95;;;20.48;;
57848;SDS011;68645;44.762;21.516;2023-06-26T02:56:11;30.48;;;20.17;;
57848;SDS011;68645;44.762;21.516;2023-06-26T02:58:37;31.77;;;19.75;;
57848;SDS011;68645;44.762;21.516;2023-06-26T03:01:03;27.90;;;19.90;;
57848;SDS011;68645;44.762;21.516;2023-06-26T03:03:29;30.02;;;18.63;;
57848;SDS011;68645;44.762;21.516;2023-06-26T03:05:55;24.38;;;17.88;;
57848;SDS011;68645;44.762;21.516;2023-06-26T03:08:22;26.50;;;17.75;;
57848;SDS011;68645;44.762;21.516;2023-06-26T03:10:48;24.15;;;17.15;;
57848;SDS011;68645;44.762;21.516;2023-06-26T03:13:14;22.27;;;14.82;;
57848;SDS011;68645;44.762;21.516;2023-06-26T03:15:41;23.90;;;15.50;;
57848;SDS011;68645;44.762;21.516;2023-06-26T03:18:07;22.88;;;14.20;;
57848;SDS011;68645;44.762;21.516;2023-06-26T03:20:34;24.45;;;13.65;;
57848;SDS011;68645;44.762;21.516;2023-06-26T03:23:00;19.13;;;13.43;;
57848;SDS011;68645;44.762;21.516;2023-06-26T03:25:27;18.75;;;12.48;;
57848;SDS011;68645;44.762;21.516;2023-06-26T03:27:53;20.58;;;12.52;;
57848;SDS011;68645;44.762;21.516;2023-06-26T03:30:19;20.83;;;13.73;;
57848;SDS011;68645;44.762;21.516;2023-06-26T03:32:45;23.70;;;13.15;;
57848;SDS011;68645;44.762;21.516;2023-06-26T03:35:11;20.08;;;13.70;;
57848;SDS011;68645;44.762;21.516;2023-06-26T03:37:37;20.45;;;15.10;;
57848;SDS011;68645;44.762;21.516;2023-06-26T03:40:05;20.55;;;15.40;;
57848;SDS011;68645;44.762;21.516;2023-06-26T03:42:32;23.45;;;15.95;;
57848;SDS011;68645;44.762;21.516;2023-06-26T03:44:58;19.85;;;15.57;;
57848;SDS011;68645;44.762;21.516;2023-06-26T03:47:24;27.52;;;16.50;;
57848;SDS011;68645;44.762;21.516;2023-06-26T03:49:50;22.10;;;17.05;;
57848;SDS011;68645;44.762;21.516;2023-06-26T03:52:16;25.17;;;15.48;;
57848;SDS011;68645;44.762;21.516;2023-06-26T03:54:43;23.70;;;16.90;;
57848;SDS011;68645;44.762;21.516;2023-06-26T03:57:09;22.48;;;16.63;;
57848;SDS011;68645;44.762;21.516;2023-06-26T03:59:36;27.08;;;16.58;;
57848;SDS011;68645;44.762;21.516;2023-06-26T04:02:02;25.80;;;16.30;;
57848;SDS011;68645;44.762;21.516;2023-06-26T04:04:28;23.15;;;15.20;;
57848;SDS011;68645;44.762;21.516;2023-06-26T04:06:55;33.45;;;16.17;;
57848;SDS011;68645;44.762;21.516;2023-06-26T04:09:22;22.17;;;16.13;;
57848;SDS011;68645;44.762;21.516;2023-06-26T04:11:48;24.48;;;16.45;;
57848;SDS011;68645;44.762;21.516;2023-06-26T04:14:14;19.88;;;15.70;;
57848;SDS011;68645;44.762;21.516;2023-06-26T04:16:41;21.15;;;15.95;;
57848;SDS011;68645;44.762;21.516;2023-06-26T04:19:07;23.30;;;15.98;;
57848;SDS011;68645;44.762;21.516;2023-06-26T04:21:35;26.50;;;15.80;;
57848;SDS011;68645;44.762;21.516;2023-06-26T04:24:01;20.33;;;15.05;;
57848;SDS011;68645;44.762;21.516;2023-06-26T04:26:27;20.10;;;15.43;;
57848;SDS011;68645;44.762;21.516;2023-06-26T04:28:54;18.70;;;14.43;;
57848;SDS011;68645;44.762;21.516;2023-06-26T04:31:20;20.63;;;13.70;;
57848;SDS011;68645;44.762;21.516;2023-06-26T04:33:47;19.48;;;15.57;;
57848;SDS011;68645;44.762;21.516;2023-06-26T04:36:16;19.88;;;15.40;;
57848;SDS011;68645;44.762;21.516;2023-06-26T04:38:42;18.25;;;14.63;;
57848;SDS011;68645;44.762;21.516;2023-06-26T04:41:08;21.75;;;15.07;;
57848;SDS011;68645;44.762;21.516;2023-06-26T04:43:34;20.88;;;14.60;;
57848;SDS011;68645;44.762;21.516;2023-06-26T04:46:04;22.52;;;13.95;;
57848;SDS011;68645;44.762;21.516;2023-06-26T04:48:31;26.95;;;15.00;;
57848;SDS011;68645;44.762;21.516;2023-06-26T04:50:57;21.70;;;14.18;;
57848;SDS011;68645;44.762;21.516;2023-06-26T04:53:24;19.60;;;14.25;;
57848;SDS011;68645;44.762;21.516;2023-06-26T04:55:50;20.60;;;14.05;;
57848;SDS011;68645;44.762;21.516;2023-06-26T04:58:17;17.83;;;13.30;;
57848;SDS011;68645;44.762;21.516;2023-06-26T05:00:43;21.52;;;14.13;;
57848;SDS011;68645;44.762;21.516;2023-06-26T05:03:11;19.42;;;14.43;;
57848;SDS011;68645;44.762;21.516;2023-06-26T05:05:37;20.08;;;14.25;;
57848;SDS011;68645;44.762;21.516;2023-06-26T05:08:13;19.70;;;14.65;;
57848;SDS011;68645;44.762;21.516;2023-06-26T05:10:40;20.48;;;14.50;;
57848;SDS011;68645;44.762;21.516;2023-06-26T05:13:06;19.23;;;14.07;;
57848;SDS011;68645;44.762;21.516;2023-06-26T05:15:32;22.10;;;14.70;;
57848;SDS011;68645;44.762;21.516;2023-06-26T05:17:58;16.20;;;14.20;;
57848;SDS011;68645;44.762;21.516;2023-06-26T05:20:24;19.40;;;13.40;;
57848;SDS011;68645;44.762;21.516;2023-06-26T05:22:51;18.13;;;13.20;;
57848;SDS011;68645;44.762;21.516;2023-06-26T05:25:20;17.05;;;12.27;;
57848;SDS011;68645;44.762;21.516;2023-06-26T05:27:48;16.13;;;12.38;;
57848;SDS011;68645;44.762;21.516;2023-06-26T05:30:14;16.90;;;12.68;;
57848;SDS011;68645;44.762;21.516;2023-06-26T05:32:41;16.08;;;12.90;;
57848;SDS011;68645;44.762;21.516;2023-06-26T05:35:07;16.27;;;12.55;;
57848;SDS011;68645;44.762;21.516;2023-06-26T05:37:33;17.02;;;12.50;;
57848;SDS011;68645;44.762;21.516;2023-06-26T05:40:01;13.82;;;11.80;;
57848;SDS011;68645;44.762;21.516;2023-06-26T05:42:29;17.58;;;12.50;;
57848;SDS011;68645;44.762;21.516;2023-06-26T05:44:55;17.90;;;12.70;;
57848;SDS011;68645;44.762;21.516;2023-06-26T05:47:22;17.95;;;12.02;;
57848;SDS011;68645;44.762;21.516;2023-06-26T05:49:48;17.60;;;12.32;;
57848;SDS011;68645;44.762;21.516;2023-06-26T05:52:14;15.02;;;11.93;;
57848;SDS011;68645;44.762;21.516;2023-06-26T05:54:41;18.20;;;11.70;;
57848;SDS011;68645;44.762;21.516;2023-06-26T05:57:07;16.77;;;11.48;;
57848;SDS011;68645;44.762;21.516;2023-06-26T05:59:33;17.58;;;12.20;;
57848;SDS011;68645;44.762;21.516;2023-06-26T06:02:02;17.88;;;12.00;;
57848;SDS011;68645;44.762;21.516;2023-06-26T06:04:28;13.75;;;9.77;;
57848;SDS011;68645;44.762;21.516;2023-06-26T06:06:54;12.98;;;9.38;;
57848;SDS011;68645;44.762;21.516;2023-06-26T06:09:20;13.98;;;9.90;;
57848;SDS011;68645;44.762;21.516;2023-06-26T06:11:46;13.15;;;9.57;;
57848;SDS011;68645;44.762;21.516;2023-06-26T06:14:12;13.55;;;10.23;;
57848;SDS011;68645;44.762;21.516;2023-06-26T06:16:38;13.88;;;10.00;;
57848;SDS011;68645;44.762;21.516;2023-06-26T06:19:05;11.98;;;9.43;;
57848;SDS011;68645;44.762;21.516;2023-06-26T06:21:32;12.88;;;9.48;;
57848;SDS011;68645;44.762;21.516;2023-06-26T06:23:59;14.52;;;9.70;;
57848;SDS011;68645;44.762;21.516;2023-06-26T06:26:26;14.07;;;9.43;;
57848;SDS011;68645;44.762;21.516;2023-06-26T06:28:52;12.07;;;9.50;;
57848;SDS011;68645;44.762;21.516;2023-06-26T06:31:18;15.88;;;9.95;;
57848;SDS011;68645;44.762;21.516;2023-06-26T06:33:45;18.40;;;15.30;;
57848;SDS011;68645;44.762;21.516;2023-06-26T06:36:11;19.63;;;11.27;;
57848;SDS011;68645;44.762;21.516;2023-06-26T06:38:37;25.42;;;19.50;;
57848;SDS011;68645;44.762;21.516;2023-06-26T06:41:03;16.38;;;11.23;;
57848;SDS011;68645;44.762;21.516;2023-06-26T06:43:29;18.95;;;12.52;;
57848;SDS011;68645;44.762;21.516;2023-06-26T06:45:55;17.23;;;12.45;;
57848;SDS011;68645;44.762;21.516;2023-06-26T06:48:22;24.73;;;17.92;;
57848;SDS011;68645;44.762;21.516;2023-06-26T06:50:48;19.65;;;13.32;;
57848;SDS011;68645;44.762;21.516;2023-06-26T06:53:14;17.92;;;13.18;;
57848;SDS011;68645;44.762;21.516;2023-06-26T06:55:40;20.50;;;15.45;;
57848;SDS011;68645;44.762;21.516;2023-06-26T06:58:06;15.60;;;12.25;;
57848;SDS011;68645;44.762;21.516;2023-06-26T07:00:32;16.30;;;11.95;;
57848;SDS011;68645;44.762;21.516;2023-06-26T07:02:58;16.02;;;11.95;;
57848;SDS011;68645;44.762;21.516;2023-06-26T07:05:25;22.02;;;17.55;;
57848;SDS011;68645;44.762;21.516;2023-06-26T07:07:51;66.45;;;56.08;;
57848;SDS011;68645;44.762;21.516;2023-06-26T07:10:17;60.45;;;50.95;;
57848;SDS011;68645;44.762;21.516;2023-06-26T07:12:43;40.75;;;33.08;;
57848;SDS011;68645;44.762;21.516;2023-06-26T07:15:10;51.50;;;43.53;;
57848;SDS011;68645;44.762;21.516;2023-06-26T07:17:36;33.83;;;27.08;;
57848;SDS011;68645;44.762;21.516;2023-06-26T07:20:04;21.73;;;16.23;;
57848;SDS011;68645;44.762;21.516;2023-06-26T07:22:34;23.52;;;17.08;;
57848;SDS011;68645;44.762;21.516;2023-06-26T07:25:00;17.55;;;14.38;;
57848;SDS011;68645;44.762;21.516;2023-06-26T07:27:26;13.68;;;9.48;;
57848;SDS011;68645;44.762;21.516;2023-06-26T07:29:52;13.43;;;10.57;;
57848;SDS011;68645;44.762;21.516;2023-06-26T07:32:18;14.40;;;10.70;;
57848;SDS011;68645;44.762;21.516;2023-06-26T07:34:46;20.85;;;11.75;;
57848;SDS011;68645;44.762;21.516;2023-06-26T07:37:12;20.80;;;11.93;;
57848;SDS011;68645;44.762;21.516;2023-06-26T07:39:38;17.67;;;9.90;;
57848;SDS011;68645;44.762;21.516;2023-06-26T07:42:05;17.38;;;10.32;;
57848;SDS011;68645;44.762;21.516;2023-06-26T07:44:31;15.13;;;11.43;;
57848;SDS011;68645;44.762;21.516;2023-06-26T07:46:57;15.13;;;11.32;;
57848;SDS011;68645;44.762;21.516;2023-06-26T07:49:23;16.20;;;11.07;;
57848;SDS011;68645;44.762;21.516;2023-06-26T07:51:49;13.43;;;9.60;;
57848;SDS011;68645;44.762;21.516;2023-06-26T07:54:15;15.07;;;9.52;;
57848;SDS011;68645;44.762;21.516;2023-06-26T07:56:54;14.18;;;10.23;;
57848;SDS011;68645;44.762;21.516;2023-06-26T07:59:21;15.20;;;9.75;;
57848;SDS011;68645;44.762;21.516;2023-06-26T08:01:48;12.52;;;9.38;;
57848;SDS011;68645;44.762;21.516;2023-06-26T08:04:14;18.77;;;10.27;;
57848;SDS011;68645;44.762;21.516;2023-06-26T08:06:40;14.57;;;9.23;;
57848;SDS011;68645;44.762;21.516;2023-06-26T08:09:07;22.33;;;11.50;;
57848;SDS011;68645;44.762;21.516;2023-06-26T08:11:33;19.48;;;15.20;;
57848;SDS011;68645;44.762;21.516;2023-06-26T08:13:59;49.22;;;36.33;;
57848;SDS011;68645;44.762;21.516;2023-06-26T08:16:25;13.18;;;9.82;;
57848;SDS011;68645;44.762;21.516;2023-06-26T08:18:51;12.90;;;8.73;;
57848;SDS011;68645;44.762;21.516;2023-06-26T08:21:18;13.52;;;10.20;;
57848;SDS011;68645;44.762;21.516;2023-06-26T08:23:44;12.07;;;9.93;;
57848;SDS011;68645;44.762;21.516;2023-06-26T08:26:10;11.38;;;9.05;;
57848;SDS011;68645;44.762;21.516;2023-06-26T08:28:37;14.23;;;9.32;;
57848;SDS011;68645;44.762;21.516;2023-06-26T08:31:04;13.15;;;8.63;;
57848;SDS011;68645;44.762;21.516;2023-06-26T08:33:30;50.10;;;42.55;;
57848;SDS011;68645;44.762;21.516;2023-06-26T08:35:56;10.90;;;9.15;;
57848;SDS011;68645;44.762;21.516;2023-06-26T08:38:22;31.42;;;22.90;;
57848;SDS011;68645;44.762;21.516;2023-06-26T08:40:48;40.20;;;31.13;;
57848;SDS011;68645;44.762;21.516;2023-06-26T08:43:14;19.23;;;12.68;;
57848;SDS011;68645;44.762;21.516;2023-06-26T08:45:41;25.77;;;19.23;;
57848;SDS011;68645;44.762;21.516;2023-06-26T08:48:08;23.33;;;17.83;;
57848;SDS011;68645;44.762;21.516;2023-06-26T08:50:35;14.05;;;11.02;;
57848;SDS011;68645;44.762;21.516;2023-06-26T08:53:47;22.10;;;13.75;;
57848;SDS011;68645;44.762;21.516;2023-06-26T08:55:47;11.90;;;8.35;;
57848;SDS011;68645;44.762;21.516;2023-06-26T08:58:15;12.30;;;9.30;;
57848;SDS011;68645;44.762;21.516;2023-06-26T09:00:41;14.77;;;11.93;;
57848;SDS011;68645;44.762;21.516;2023-06-26T09:03:07;13.07;;;9.65;;
57848;SDS011;68645;44.762;21.516;2023-06-26T09:05:34;13.23;;;8.70;;
57848;SDS011;68645;44.762;21.516;2023-06-26T09:08:01;14.73;;;10.88;;
57848;SDS011;68645;44.762;21.516;2023-06-26T09:10:28;14.15;;;10.88;;
57848;SDS011;68645;44.762;21.516;2023-06-26T09:12:57;12.00;;;7.70;;
57848;SDS011;68645;44.762;21.516;2023-06-26T09:15:26;21.45;;;13.63;;
57848;SDS011;68645;44.762;21.516;2023-06-26T09:17:57;14.15;;;8.52;;
57848;SDS011;68645;44.762;21.516;2023-06-26T09:20:25;16.90;;;10.37;;
57848;SDS011;68645;44.762;21.516;2023-06-26T09:22:54;21.65;;;15.10;;
57848;SDS011;68645;44.762;21.516;2023-06-26T09:25:21;9.88;;;8.50;;
57848;SDS011;68645;44.762;21.516;2023-06-26T09:27:48;8.65;;;7.20;;
57848;SDS011;68645;44.762;21.516;2023-06-26T09:30:16;16.35;;;13.10;;
57848;SDS011;68645;44.762;21.516;2023-06-26T09:32:43;17.13;;;12.73;;
57848;SDS011;68645;44.762;21.516;2023-06-26T09:35:09;17.10;;;12.80;;
57848;SDS011;68645;44.762;21.516;2023-06-26T09:37:36;10.70;;;8.40;;
57848;SDS011;68645;44.762;21.516;2023-06-26T09:40:03;11.52;;;7.25;;
57848;SDS011;68645;44.762;21.516;2023-06-26T09:42:33;9.75;;;8.57;;
57848;SDS011;68645;44.762;21.516;2023-06-26T09:44:59;26.40;;;13.73;;
57848;SDS011;68645;44.762;21.516;2023-06-26T09:47:25;10.57;;;7.68;;
57848;SDS011;68645;44.762;21.516;2023-06-26T09:49:51;17.23;;;12.38;;
57848;SDS011;68645;44.762;21.516;2023-06-26T09:52:19;9.35;;;7.20;;
57848;SDS011;68645;44.762;21.516;2023-06-26T09:54:46;10.63;;;8.57;;
57848;SDS011;68645;44.762;21.516;2023-06-26T09:57:13;8.18;;;6.50;;
57848;SDS011;68645;44.762;21.516;2023-06-26T09:59:40;12.80;;;9.02;;
57848;SDS011;68645;44.762;21.516;2023-06-26T10:02:06;51.28;;;38.22;;
57848;SDS011;68645;44.762;21.516;2023-06-26T10:04:34;40.60;;;32.97;;
57848;SDS011;68645;44.762;21.516;2023-06-26T10:07:01;74.22;;;59.22;;
57848;SDS011;68645;44.762;21.516;2023-06-26T10:09:27;21.85;;;18.85;;
57848;SDS011;68645;44.762;21.516;2023-06-26T10:11:56;9.77;;;7.63;;
57848;SDS011;68645;44.762;21.516;2023-06-26T10:14:25;25.60;;;18.63;;
57848;SDS011;68645;44.762;21.516;2023-06-26T10:16:52;13.15;;;8.70;;
57848;SDS011;68645;44.762;21.516;2023-06-26T10:19:22;18.50;;;11.30;;
57848;SDS011;68645;44.762;21.516;2023-06-26T10:21:54;18.38;;;11.70;;
57848;SDS011;68645;44.762;21.516;2023-06-26T10:24:21;17.98;;;12.02;;
57848;SDS011;68645;44.762;21.516;2023-06-26T10:26:49;11.85;;;8.90;;
57848;SDS011;68645;44.762;21.516;2023-06-26T10:29:16;20.70;;;15.77;;
57848;SDS011;68645;44.762;21.516;2023-06-26T10:31:44;19.42;;;15.23;;
57848;SDS011;68645;44.762;21.516;2023-06-26T10:34:12;14.80;;;10.77;;
57848;SDS011;68645;44.762;21.516;2023-06-26T10:36:38;13.32;;;7.85;;
57848;SDS011;68645;44.762;21.516;2023-06-26T10:39:05;10.57;;;7.85;;
57848;SDS011;68645;44.762;21.516;2023-06-26T10:41:37;10.70;;;6.85;;
57848;SDS011;68645;44.762;21.516;2023-06-26T10:44:08;10.07;;;8.15;;
57848;SDS011;68645;44.762;21.516;2023-06-26T10:46:50;9.77;;;6.68;;
57848;SDS011;68645;44.762;21.516;2023-06-26T10:49:18;10.80;;;6.93;;
57848;SDS011;68645;44.762;21.516;2023-06-26T10:51:51;13.68;;;6.35;;
57848;SDS011;68645;44.762;21.516;2023-06-26T10:54:19;18.52;;;14.13;;
57848;SDS011;68645;44.762;21.516;2023-06-26T10:56:49;10.82;;;7.82;;
57848;SDS011;68645;44.762;21.516;2023-06-26T10:59:19;8.70;;;6.43;;
57848;SDS011;68645;44.762;21.516;2023-06-26T11:01:46;7.40;;;6.35;;
57848;SDS011;68645;44.762;21.516;2023-06-26T11:04:13;12.32;;;9.05;;
57848;SDS011;68645;44.762;21.516;2023-06-26T11:06:43;12.68;;;10.13;;
57848;SDS011;68645;44.762;21.516;2023-06-26T11:09:11;7.90;;;6.30;;
57848;SDS011;68645;44.762;21.516;2023-06-26T11:14:20;10.35;;;6.30;;
57848;SDS011;68645;44.762;21.516;2023-06-26T11:16:47;11.20;;;5.95;;
57848;SDS011;68645;44.762;21.516;2023-06-26T11:19:14;12.30;;;7.28;;
57848;SDS011;68645;44.762;21.516;2023-06-26T11:21:40;10.00;;;6.43;;
57848;SDS011;68645;44.762;21.516;2023-06-26T11:24:07;13.60;;;6.72;;
57848;SDS011;68645;44.762;21.516;2023-06-26T11:26:39;11.07;;;6.28;;
57848;SDS011;68645;44.762;21.516;2023-06-26T11:29:06;7.45;;;5.70;;
57848;SDS011;68645;44.762;21.516;2023-06-26T11:31:33;9.00;;;5.78;;
57848;SDS011;68645;44.762;21.516;2023-06-26T11:34:00;6.68;;;5.07;;
57848;SDS011;68645;44.762;21.516;2023-06-26T11:36:27;8.13;;;5.20;;
57848;SDS011;68645;44.762;21.516;2023-06-26T11:38:57;9.50;;;6.10;;
57848;SDS011;68645;44.762;21.516;2023-06-26T11:41:23;12.25;;;8.00;;
57848;SDS011;68645;44.762;21.516;2023-06-26T11:43:50;16.77;;;14.07;;
57848;SDS011;68645;44.762;21.516;2023-06-26T11:46:19;17.55;;;15.30;;
57848;SDS011;68645;44.762;21.516;2023-06-26T11:48:45;9.60;;;6.03;;
57848;SDS011;68645;44.762;21.516;2023-06-26T11:51:12;10.27;;;9.25;;
57848;SDS011;68645;44.762;21.516;2023-06-26T11:53:42;8.23;;;6.90;;
57848;SDS011;68645;44.762;21.516;2023-06-26T11:56:12;10.65;;;5.75;;
57848;SDS011;68645;44.762;21.516;2023-06-26T12:01:33;16.08;;;8.13;;
57848;SDS011;68645;44.762;21.516;2023-06-26T12:04:00;10.52;;;6.03;;
57848;SDS011;68645;44.762;21.516;2023-06-26T12:06:28;8.10;;;5.88;;
57848;SDS011;68645;44.762;21.516;2023-06-26T12:08:54;10.02;;;5.28;;
57848;SDS011;68645;44.762;21.516;2023-06-26T12:11:21;6.20;;;5.15;;
57848;SDS011;68645;44.762;21.516;2023-06-26T12:13:48;9.90;;;5.80;;
57848;SDS011;68645;44.762;21.516;2023-06-26T12:16:14;7.88;;;5.82;;
57848;SDS011;68645;44.762;21.516;2023-06-26T12:18:41;8.25;;;5.75;;
57848;SDS011;68645;44.762;21.516;2023-06-26T12:21:07;6.93;;;5.43;;
57848;SDS011;68645;44.762;21.516;2023-06-26T12:23:33;22.08;;;17.17;;
57848;SDS011;68645;44.762;21.516;2023-06-26T12:26:17;15.88;;;12.05;;
57848;SDS011;68645;44.762;21.516;2023-06-26T12:28:44;27.88;;;21.60;;
57848;SDS011;68645;44.762;21.516;2023-06-26T12:31:17;13.48;;;9.25;;
57848;SDS011;68645;44.762;21.516;2023-06-26T12:33:43;9.88;;;6.00;;
57848;SDS011;68645;44.762;21.516;2023-06-26T12:36:10;11.65;;;9.38;;
57848;SDS011;68645;44.762;21.516;2023-06-26T12:38:37;9.45;;;8.43;;
57848;SDS011;68645;44.762;21.516;2023-06-26T12:41:03;7.80;;;5.30;;
57848;SDS011;68645;44.762;21.516;2023-06-26T12:43:29;8.23;;;5.15;;
57848;SDS011;68645;44.762;21.516;2023-06-26T12:45:56;8.00;;;5.13;;
57848;SDS011;68645;44.762;21.516;2023-06-26T12:48:35;6.10;;;5.13;;
57848;SDS011;68645;44.762;21.516;2023-06-26T12:51:11;8.82;;;5.45;;
57848;SDS011;68645;44.762;21.516;2023-06-26T12:53:38;8.57;;;6.05;;
57848;SDS011;68645;44.762;21.516;2023-06-26T12:56:05;7.32;;;5.28;;
57848;SDS011;68645;44.762;21.516;2023-06-26T12:58:32;7.95;;;5.32;;
57848;SDS011;68645;44.762;21.516;2023-06-26T13:00:58;7.07;;;5.50;;
57848;SDS011;68645;44.762;21.516;2023-06-26T13:03:24;5.80;;;4.80;;
57848;SDS011;68645;44.762;21.516;2023-06-26T13:05:50;6.30;;;5.10;;
57848;SDS011;68645;44.762;21.516;2023-06-26T13:08:16;9.23;;;5.88;;
57848;SDS011;68645;44.762;21.516;2023-06-26T13:10:43;8.95;;;6.55;;
57848;SDS011;68645;44.762;21.516;2023-06-26T13:13:10;6.57;;;5.88;;
57848;SDS011;68645;44.762;21.516;2023-06-26T13:15:36;7.13;;;5.18;;
57848;SDS011;68645;44.762;21.516;2023-06-26T13:18:03;9.35;;;7.00;;
57848;SDS011;68645;44.762;21.516;2023-06-26T13:20:29;8.57;;;7.63;;
57848;SDS011;68645;44.762;21.516;2023-06-26T13:22:55;8.13;;;6.68;;
57848;SDS011;68645;44.762;21.516;2023-06-26T13:25:21;6.82;;;5.57;;
57848;SDS011;68645;44.762;21.516;2023-06-26T13:27:48;9.85;;;5.30;;
57848;SDS011;68645;44.762;21.516;2023-06-26T13:30:14;7.95;;;5.43;;
57848;SDS011;68645;44.762;21.516;2023-06-26T13:32:41;22.45;;;14.95;;
57848;SDS011;68645;44.762;21.516;2023-06-26T13:35:07;9.15;;;6.25;;
57848;SDS011;68645;44.762;21.516;2023-06-26T13:37:34;10.32;;;6.20;;
57848;SDS011;68645;44.762;21.516;2023-06-26T13:40:02;8.23;;;6.13;;
57848;SDS011;68645;44.762;21.516;2023-06-26T13:42:28;9.07;;;5.95;;
57848;SDS011;68645;44.762;21.516;2023-06-26T13:44:54;7.00;;;5.47;;
57848;SDS011;68645;44.762;21.516;2023-06-26T13:47:21;6.15;;;5.53;;
57848;SDS011;68645;44.762;21.516;2023-06-26T13:49:47;9.35;;;6.03;;
57848;SDS011;68645;44.762;21.516;2023-06-26T13:52:13;8.80;;;5.65;;
57848;SDS011;68645;44.762;21.516;2023-06-26T13:54:40;6.70;;;5.43;;
57848;SDS011;68645;44.762;21.516;2023-06-26T13:57:07;6.82;;;5.68;;
57848;SDS011;68645;44.762;21.516;2023-06-26T13:59:33;8.18;;;5.60;;
57848;SDS011;68645;44.762;21.516;2023-06-26T14:01:59;10.38;;;5.55;;
57848;SDS011;68645;44.762;21.516;2023-06-26T14:04:26;7.35;;;5.53;;
57848;SDS011;68645;44.762;21.516;2023-06-26T14:06:52;6.75;;;5.20;;
57848;SDS011;68645;44.762;21.516;2023-06-26T14:09:18;10.15;;;5.85;;
57848;SDS011;68645;44.762;21.516;2023-06-26T14:11:44;7.65;;;5.25;;
57848;SDS011;68645;44.762;21.516;2023-06-26T14:14:10;7.70;;;6.07;;
57848;SDS011;68645;44.762;21.516;2023-06-26T14:16:37;7.30;;;6.18;;
57848;SDS011;68645;44.762;21.516;2023-06-26T14:19:05;6.80;;;5.05;;
57848;SDS011;68645;44.762;21.516;2023-06-26T14:21:31;9.07;;;6.07;;
57848;SDS011;68645;44.762;21.516;2023-06-26T14:23:58;11.93;;;6.10;;
57848;SDS011;68645;44.762;21.516;2023-06-26T14:26:24;7.40;;;6.00;;